Time;durP1;ratioP1;P1;durP2;ratioP2;P2;SDS_P1;SDS_P2;PMS_P1;PMS_P2;Temp;Humidity;BMP_temperature;BMP_pressure;BME280_temperature;BME280_humidity;BME280_pressure;Samples;Min_cycle;Max_cycle;Signal;HPM_P1;HPM_P2
2022/08/31 00:05:49;;;;;;;18.20;11.48;;;27.60;99.90;;;;;;1915200;74;21116;-82
2022/08/31 00:08:20;;;;;;;17.15;11.20;;;27.70;99.90;;;;;;1927332;74;21120;-81
2022/08/31 00:10:53;;;;;;;16.97;11.75;;;27.70;99.90;;;;;;1913818;74;21530;-82
2022/08/31 00:13:24;;;;;;;18.23;11.25;;;27.70;99.90;;;;;;1904481;74;21157;-82
2022/08/31 00:15:56;;;;;;;17.57;11.70;;;27.70;99.90;;;;;;1906828;74;21148;-82
2022/08/31 00:18:27;;;;;;;14.20;10.32;;;27.70;99.90;;;;;;1908579;74;21226;-82
2022/08/31 00:20:57;;;;;;;16.45;11.03;;;27.70;99.90;;;;;;1907075;74;21597;-82
2022/08/31 00:23:28;;;;;;;13.35;10.50;;;27.70;99.90;;;;;;1906387;74;21179;-81
2022/08/31 00:26:00;;;;;;;13.28;11.03;;;27.70;99.90;;;;;;1904845;74;21160;-83
2022/08/31 00:28:31;;;;;;;13.62;10.05;;;27.80;99.90;;;;;;1925414;73;21104;-82
2022/08/31 00:31:02;;;;;;;14.93;8.98;;;27.80;99.90;;;;;;1906171;74;21160;-81
2022/08/31 00:33:35;;;;;;;12.45;9.25;;;27.90;99.90;;;;;;1914491;74;21152;-82
2022/08/31 00:36:08;;;;;;;14.53;10.30;;;28.00;99.90;;;;;;1904189;74;21193;-82
2022/08/31 00:38:40;;;;;;;14.13;9.88;;;28.00;99.90;;;;;;1911322;74;21156;-81
2022/08/31 00:41:11;;;;;;;15.38;9.70;;;28.10;99.90;;;;;;1907120;74;21206;-83
2022/08/31 00:43:43;;;;;;;13.83;8.83;;;28.10;99.90;;;;;;1914325;74;21034;-82
2022/08/31 00:46:17;;;;;;;11.93;8.18;;;28.20;99.90;;;;;;1910694;74;21187;-81
2022/08/31 00:48:50;;;;;;;11.20;8.15;;;28.20;99.90;;;;;;1904352;74;21186;-82
2022/08/31 00:51:22;;;;;;;11.80;8.48;;;28.20;99.90;;;;;;1902610;74;21076;-82
2022/08/31 00:53:53;;;;;;;12.53;7.53;;;28.30;99.90;;;;;;1919146;74;21198;-81
2022/08/31 00:56:25;;;;;;;15.18;8.73;;;28.40;99.90;;;;;;1915256;74;21206;-81
2022/08/31 00:58:56;;;;;;;10.90;7.42;;;28.40;99.90;;;;;;1909650;74;21210;-82
2022/08/31 01:01:29;;;;;;;11.83;7.97;;;28.40;99.90;;;;;;1910074;74;21197;-81
2022/08/31 01:04:00;;;;;;;12.30;7.65;;;28.50;99.90;;;;;;1903431;74;21675;-82
2022/08/31 01:06:32;;;;;;;11.40;8.00;;;28.50;99.90;;;;;;1930076;73;21127;-82
2022/08/31 01:09:04;;;;;;;14.18;5.85;;;28.60;99.90;;;;;;1936278;73;21103;-82
2022/08/31 01:11:37;;;;;;;10.88;7.45;;;28.60;99.90;;;;;;1942616;73;21071;-82
2022/08/31 01:14:10;;;;;;;11.85;6.90;;;28.60;99.90;;;;;;1924258;73;21084;-82
2022/08/31 01:16:43;;;;;;;11.38;7.45;;;28.70;99.90;;;;;;1941889;73;21159;-82
2022/08/31 01:19:17;;;;;;;13.58;8.20;;;28.70;99.90;;;;;;1931599;73;21139;-83
2022/08/31 01:21:50;;;;;;;11.45;6.47;;;28.80;99.90;;;;;;1924477;73;21108;-82
2022/08/31 01:24:23;;;;;;;9.48;5.75;;;28.80;99.90;;;;;;1935694;73;21564;-82
2022/08/31 01:26:55;;;;;;;14.15;5.70;;;28.90;99.90;;;;;;1925448;73;21108;-82
2022/08/31 01:29:26;;;;;;;7.33;5.58;;;29.00;99.90;;;;;;1938983;73;21131;-82
2022/08/31 01:31:57;;;;;;;9.08;5.30;;;29.00;99.90;;;;;;1933927;73;21111;-83
2022/08/31 01:34:28;;;;;;;6.60;5.17;;;29.10;99.90;;;;;;1937544;73;22368;-82
2022/08/31 01:36:59;;;;;;;8.18;5.85;;;29.20;99.90;;;;;;1937404;73;21835;-81
2022/08/31 01:39:30;;;;;;;8.40;6.15;;;29.30;99.90;;;;;;1936602;73;21140;-83
2022/08/31 01:42:01;;;;;;;9.38;4.95;;;29.30;99.60;;;;;;1929954;73;21099;-83
2022/08/31 01:44:35;;;;;;;8.33;3.95;;;29.40;99.30;;;;;;1941820;73;21197;-82
2022/08/31 01:47:06;;;;;;;5.90;4.17;;;29.40;98.60;;;;;;1938556;73;21227;-70
2022/08/31 01:49:37;;;;;;;6.60;3.92;;;29.40;98.90;;;;;;1932345;73;21138;-69
2022/08/31 01:52:07;;;;;;;7.03;4.00;;;29.50;98.70;;;;;;1924482;73;21120;-69
2022/08/31 01:54:38;;;;;;;5.75;3.62;;;29.50;98.60;;;;;;1932364;73;21068;-71
2022/08/31 01:57:09;;;;;;;6.72;4.30;;;29.50;98.40;;;;;;1931938;73;21159;-69
2022/08/31 01:59:40;;;;;;;6.28;3.98;;;29.60;98.70;;;;;;1933845;73;21217;-70
2022/08/31 02:02:11;;;;;;;9.93;4.33;;;29.70;98.70;;;;;;1935564;73;21633;-70
2022/08/31 02:04:42;;;;;;;8.53;4.17;;;29.80;98.50;;;;;;1937442;73;21079;-70
2022/08/31 02:07:13;;;;;;;5.70;4.05;;;29.80;98.50;;;;;;1926840;73;21564;-69
2022/08/31 02:09:44;;;;;;;6.97;4.50;;;29.80;98.40;;;;;;1916365;74;21147;-70
2022/08/31 02:12:15;;;;;;;6.90;4.75;;;29.90;98.40;;;;;;1913664;74;21596;-69
2022/08/31 02:14:46;;;;;;;6.35;3.87;;;29.90;98.10;;;;;;1914121;74;21116;-69
2022/08/31 02:17:17;;;;;;;5.03;4.20;;;30.00;97.80;;;;;;1925787;74;21665;-69
2022/08/31 02:19:47;;;;;;;4.67;3.33;;;30.10;97.80;;;;;;1934677;74;21229;-70
2022/08/31 02:22:18;;;;;;;5.37;3.40;;;30.20;97.30;;;;;;1919335;74;21088;-70
2022/08/31 02:24:49;;;;;;;4.92;3.30;;;30.30;97.20;;;;;;1914062;73;21208;-70
2022/08/31 02:27:20;;;;;;;6.60;3.62;;;30.50;97.00;;;;;;1917594;74;21067;-69
2022/08/31 02:29:51;;;;;;;8.15;3.35;;;30.60;97.00;;;;;;1921826;74;21183;-68
2022/08/31 02:32:23;;;;;;;8.63;4.17;;;30.60;96.80;;;;;;1884588;75;21128;-69
2022/08/31 02:34:54;;;;;;;5.47;3.87;;;30.70;96.70;;;;;;1924254;74;21591;-68
2022/08/31 02:37:25;;;;;;;6.12;3.67;;;30.80;96.60;;;;;;1916105;74;21123;-68
2022/08/31 02:39:57;;;;;;;6.10;3.45;;;30.90;96.40;;;;;;1924218;73;21108;-67
2022/08/31 02:42:29;;;;;;;9.50;3.75;;;31.00;96.40;;;;;;1913286;74;21137;-68
2022/08/31 02:45:01;;;;;;;8.55;3.80;;;31.10;96.20;;;;;;1909380;74;21081;-67
2022/08/31 02:47:32;;;;;;;5.15;3.37;;;31.20;96.30;;;;;;1919667;73;21477;-68
2022/08/31 02:50:05;;;;;;;6.15;3.37;;;31.30;95.10;;;;;;1916596;73;21206;-68
2022/08/31 02:52:36;;;;;;;7.08;3.80;;;31.40;94.70;;;;;;1916084;74;21129;-69
2022/08/31 02:55:08;;;;;;;5.90;3.58;;;31.40;95.00;;;;;;1917585;73;21104;-70
2022/08/31 02:57:39;;;;;;;6.47;3.77;;;31.60;95.00;;;;;;1917496;74;21182;-71
2022/08/31 03:00:11;;;;;;;6.80;3.95;;;31.60;95.00;;;;;;1924979;73;21548;-71
2022/08/31 03:02:42;;;;;;;8.50;3.47;;;31.80;94.90;;;;;;1929230;74;21203;-70
2022/08/31 03:05:14;;;;;;;4.70;2.83;;;32.00;94.10;;;;;;1917464;74;21630;-70
2022/08/31 03:07:45;;;;;;;4.15;3.02;;;32.00;92.60;;;;;;1925278;73;21570;-70
2022/08/31 03:10:18;;;;;;;7.75;3.92;;;32.00;92.50;;;;;;1929760;74;21757;-69
2022/08/31 03:12:49;;;;;;;5.58;2.90;;;32.00;93.60;;;;;;1922086;73;21111;-71
2022/08/31 03:15:22;;;;;;;8.08;3.37;;;32.00;93.20;;;;;;1936071;73;21224;-70
2022/08/31 03:17:54;;;;;;;10.53;3.22;;;32.20;93.20;;;;;;1924179;73;21083;-70
2022/08/31 03:20:26;;;;;;;5.47;3.25;;;32.30;93.10;;;;;;1926163;73;21249;-69
2022/08/31 03:22:57;;;;;;;4.30;2.83;;;32.40;92.10;;;;;;1921917;74;21187;-69
2022/08/31 03:25:29;;;;;;;4.83;2.60;;;32.60;91.30;;;;;;1923905;73;21093;-69
2022/08/31 03:28:00;;;;;;;5.22;2.37;;;32.60;90.80;;;;;;1930953;73;21187;-67
2022/08/31 03:30:31;;;;;;;3.72;2.40;;;32.70;90.90;;;;;;1927802;73;21090;-68
2022/08/31 03:33:02;;;;;;;4.92;2.75;;;32.80;91.00;;;;;;1929406;73;21411;-69
2022/08/31 03:35:33;;;;;;;3.67;2.60;;;32.90;91.20;;;;;;1920676;73;21164;-66
2022/08/31 03:38:04;;;;;;;4.25;1.77;;;33.00;90.90;;;;;;1927156;74;21501;-68
2022/08/31 03:40:35;;;;;;;5.25;2.22;;;33.10;87.50;;;;;;1924551;73;21115;-68
2022/08/31 03:43:10;;;;;;;4.08;2.47;;;33.20;88.10;;;;;;1928507;73;21705;-68
2022/08/31 03:45:42;;;;;;;4.55;2.20;;;33.30;88.70;;;;;;1927854;73;21624;-68
2022/08/31 03:48:12;;;;;;;5.62;2.40;;;33.40;88.00;;;;;;1929731;73;21690;-69
2022/08/31 03:50:43;;;;;;;4.25;1.70;;;33.40;88.30;;;;;;1938417;73;21615;-68
2022/08/31 03:53:14;;;;;;;5.37;1.87;;;33.40;81.90;;;;;;1931337;74;21084;-69
2022/08/31 03:55:47;;;;;;;5.92;2.62;;;33.40;83.00;;;;;;1922690;74;21140;-69
2022/08/31 03:58:18;;;;;;;4.37;2.02;;;33.30;85.10;;;;;;1921569;74;21211;-69
2022/08/31 04:00:48;;;;;;;3.52;1.82;;;33.40;84.10;;;;;;1927474;74;21168;-70
2022/08/31 04:03:19;;;;;;;3.17;1.87;;;33.40;82.80;;;;;;1921510;74;21614;-70
2022/08/31 04:05:50;;;;;;;4.42;2.50;;;33.40;83.90;;;;;;1929911;73;21131;-70
2022/08/31 04:08:22;;;;;;;4.53;2.22;;;33.30;85.20;;;;;;1911070;74;21222;-70
2022/08/31 04:10:54;;;;;;;6.72;2.40;;;33.30;85.60;;;;;;1902322;74;21211;-70
2022/08/31 04:13:25;;;;;;;4.37;1.85;;;33.20;87.50;;;;;;1915467;74;21723;-70
2022/08/31 04:16:00;;;;;;;3.52;2.15;;;33.30;86.60;;;;;;1907389;74;21722;-69
2022/08/31 04:18:31;;;;;;;5.58;1.95;;;33.20;84.80;;;;;;1907962;74;21073;-70
2022/08/31 04:21:02;;;;;;;2.27;1.75;;;33.20;84.30;;;;;;1911181;73;21090;-69
2022/08/31 04:23:32;;;;;;;3.30;1.77;;;33.20;84.30;;;;;;1909361;74;21435;-69
2022/08/31 04:26:05;;;;;;;4.87;2.02;;;33.10;83.60;;;;;;1921650;74;21621;-69
2022/08/31 04:28:36;;;;;;;2.35;1.80;;;33.10;84.90;;;;;;1914892;74;21643;-70
2022/08/31 04:31:07;;;;;;;4.87;2.20;;;33.10;83.50;;;;;;1883972;75;21602;-69
2022/08/31 04:33:41;;;;;;;3.27;1.80;;;33.20;82.60;;;;;;1912359;74;21698;-70
2022/08/31 04:36:14;;;;;;;2.35;1.40;;;33.20;82.30;;;;;;1900519;75;21132;-69
2022/08/31 04:38:47;;;;;;;2.65;1.60;;;33.20;81.70;;;;;;1901201;75;21186;-68
2022/08/31 04:41:20;;;;;;;2.30;1.50;;;33.30;83.10;;;;;;1903240;75;21656;-68
2022/08/31 04:43:54;;;;;;;3.02;1.95;;;33.30;83.70;;;;;;1911361;74;21538;-70
2022/08/31 04:46:27;;;;;;;3.60;1.57;;;33.40;84.10;;;;;;1901584;74;21639;-70
2022/08/31 04:48:58;;;;;;;2.87;1.70;;;33.60;81.80;;;;;;1900396;75;21085;-70
2022/08/31 04:51:34;;;;;;;2.37;1.17;;;33.60;79.80;;;;;;1911078;74;21179;-72
2022/08/31 04:54:07;;;;;;;2.52;1.50;;;33.70;77.90;;;;;;1915522;74;21140;-72
2022/08/31 04:56:41;;;;;;;2.60;1.30;;;33.80;77.00;;;;;;1901545;75;22366;-71
2022/08/31 04:59:14;;;;;;;3.83;1.35;;;33.80;77.60;;;;;;1912786;74;21120;-71
2022/08/31 05:01:46;;;;;;;2.95;1.60;;;33.90;77.80;;;;;;1922923;74;21643;-71
2022/08/31 05:04:18;;;;;;;3.85;1.60;;;34.00;76.70;;;;;;1907233;74;21640;-70
2022/08/31 05:06:48;;;;;;;3.77;1.70;;;34.10;78.00;;;;;;1907563;74;21145;-69
2022/08/31 05:09:22;;;;;;;4.78;1.82;;;34.20;77.80;;;;;;1903859;74;21210;-69
2022/08/31 05:11:55;;;;;;;2.08;1.40;;;34.30;77.50;;;;;;1901678;74;21232;-70
2022/08/31 05:14:28;;;;;;;3.90;1.70;;;34.30;77.40;;;;;;1901593;74;21589;-69
2022/08/31 05:17:00;;;;;;;2.95;1.85;;;34.40;77.80;;;;;;1909228;74;21254;-69
2022/08/31 05:19:31;;;;;;;3.10;2.02;;;34.40;78.50;;;;;;1911941;74;21580;-69
2022/08/31 05:22:04;;;;;;;3.75;1.70;;;34.50;79.10;;;;;;1917531;74;21100;-70
2022/08/31 05:24:37;;;;;;;2.92;1.80;;;34.60;76.80;;;;;;1911763;74;21679;-69
2022/08/31 05:27:08;;;;;;;1.95;1.40;;;34.70;77.50;;;;;;1899275;74;21144;-68
2022/08/31 05:29:39;;;;;;;2.92;1.80;;;34.80;74.10;;;;;;1911892;74;21225;-68
2022/08/31 05:32:10;;;;;;;3.47;1.50;;;34.80;74.90;;;;;;1915916;74;21707;-69
2022/08/31 05:34:41;;;;;;;3.87;1.50;;;34.80;74.90;;;;;;1916932;74;21226;-68
2022/08/31 05:37:12;;;;;;;3.65;1.40;;;34.90;73.40;;;;;;1913131;74;21696;-68
2022/08/31 05:39:43;;;;;;;4.25;1.30;;;34.90;73.50;;;;;;1903056;74;21642;-68
2022/08/31 05:42:15;;;;;;;2.47;1.37;;;35.00;74.50;;;;;;1910792;74;21155;-69
2022/08/31 05:44:46;;;;;;;3.60;1.40;;;35.10;73.20;;;;;;1901948;75;21109;-69
2022/08/31 05:47:17;;;;;;;2.50;1.10;;;35.10;70.60;;;;;;1910081;74;21541;-69
2022/08/31 05:49:48;;;;;;;3.90;1.45;;;35.10;69.50;;;;;;1933755;74;21532;-69
2022/08/31 05:52:21;;;;;;;2.50;1.50;;;35.30;70.60;;;;;;1920995;74;21093;-69
2022/08/31 05:54:53;;;;;;;4.15;2.45;;;35.30;73.10;;;;;;1905918;74;21159;-68
2022/08/31 05:57:25;;;;;;;7.50;2.37;;;35.30;76.40;;;;;;1903013;75;21530;-69
2022/08/31 05:59:56;;;;;;;3.52;2.62;;;35.20;76.40;;;;;;1911701;74;21136;-69
2022/08/31 06:02:27;;;;;;;4.12;2.83;;;35.10;77.60;;;;;;1901340;74;21525;-69
2022/08/31 06:04:58;;;;;;;7.25;5.72;;;35.10;77.00;;;;;;1866310;75;21073;-70
2022/08/31 06:07:29;;;;;;;6.00;2.42;;;35.00;77.40;;;;;;1918144;74;21129;-70
2022/08/31 06:10:00;;;;;;;9.45;5.42;;;34.80;76.30;;;;;;1906494;73;21198;-69
2022/08/31 06:12:33;;;;;;;3.62;2.33;;;34.60;76.50;;;;;;1911503;74;21120;-70
2022/08/31 06:15:03;;;;;;;4.40;2.30;;;34.50;77.90;;;;;;1916485;74;21128;-68
2022/08/31 06:17:36;;;;;;;3.87;2.08;;;34.30;78.80;;;;;;1919191;74;21548;-68
2022/08/31 06:20:08;;;;;;;10.98;6.78;;;34.10;79.30;;;;;;1890765;75;21221;-69
2022/08/31 06:22:45;;;;;;;6.10;3.95;;;34.00;80.30;;;;;;1904102;75;21184;-68
2022/08/31 06:25:18;;;;;;;7.97;5.75;;;33.90;81.40;;;;;;1898094;74;21651;-69
2022/08/31 06:27:49;;;;;;;3.83;2.35;;;33.80;81.50;;;;;;1908572;75;21705;-69
2022/08/31 06:30:21;;;;;;;6.15;4.33;;;33.70;81.90;;;;;;1894953;74;21607;-68
2022/08/31 06:32:52;;;;;;;3.30;2.12;;;33.70;83.20;;;;;;1905187;74;21132;-70
2022/08/31 06:35:24;;;;;;;9.65;5.33;;;33.60;83.60;;;;;;1920252;74;21128;-69
2022/08/31 06:37:56;;;;;;;4.53;3.25;;;33.60;84.10;;;;;;1897058;75;21092;-69
2022/08/31 06:40:28;;;;;;;5.35;2.90;;;33.50;84.60;;;;;;1902657;75;21155;-69
2022/08/31 06:42:59;;;;;;;3.47;2.25;;;33.50;84.30;;;;;;1906390;75;21623;-70
2022/08/31 06:45:31;;;;;;;5.25;2.90;;;33.40;84.20;;;;;;1898365;75;21092;-70
2022/08/31 06:48:02;;;;;;;4.72;3.02;;;33.30;85.30;;;;;;1919150;74;21641;-69
2022/08/31 06:50:33;;;;;;;3.47;2.22;;;33.20;86.10;;;;;;1908806;75;21653;-70
2022/08/31 06:53:04;;;;;;;5.15;2.27;;;33.10;86.00;;;;;;1901756;75;21077;-69
2022/08/31 06:55:35;;;;;;;4.50;2.50;;;33.00;86.50;;;;;;1845369;76;21159;-69
2022/08/31 06:58:06;;;;;;;8.85;4.00;;;32.90;87.60;;;;;;1892540;75;21075;-69
2022/08/31 07:00:37;;;;;;;10.68;3.22;;;32.80;88.90;;;;;;1890042;74;21528;-69
2022/08/31 07:05:41;;;;;;;6.55;2.55;;;32.50;91.20;;;;;;1902405;74;21614;-69
2022/08/31 07:08:12;;;;;;;4.62;2.50;;;32.20;91.40;;;;;;1912913;74;21621;-69
2022/08/31 07:10:43;;;;;;;7.60;3.15;;;31.80;91.70;;;;;;1867235;75;21192;-69
2022/08/31 07:13:14;;;;;;;6.92;2.58;;;31.40;91.90;;;;;;1924384;74;21127;-68
2022/08/31 07:15:45;;;;;;;5.53;2.25;;;31.00;92.60;;;;;;1919500;74;21209;-68
2022/08/31 07:18:16;;;;;;;5.10;1.87;;;30.60;93.00;;;;;;1922796;73;21653;-69
2022/08/31 07:20:48;;;;;;;4.10;2.00;;;30.30;92.90;;;;;;1918568;73;21052;-69
2022/08/31 07:23:18;;;;;;;5.35;2.35;;;29.90;93.90;;;;;;1914552;74;21122;-68
2022/08/31 07:25:50;;;;;;;3.60;2.05;;;29.70;94.50;;;;;;1918424;74;21647;-69
2022/08/31 07:28:20;;;;;;;4.87;2.33;;;29.50;94.50;;;;;;1916261;74;21139;-69
2022/08/31 07:30:52;;;;;;;7.97;2.12;;;29.40;94.70;;;;;;1921539;74;21618;-69
2022/08/31 07:33:23;;;;;;;3.15;1.80;;;29.30;95.00;;;;;;1917290;73;21308;-69
2022/08/31 07:35:54;;;;;;;3.92;1.90;;;29.30;94.70;;;;;;1917208;74;21130;-70
2022/08/31 07:43:29;;;;;;;2.87;1.52;;;29.20;94.40;;;;;;1922942;74;21128;-70
2022/08/31 07:46:00;;;;;;;2.95;1.30;;;29.30;94.30;;;;;;1921295;73;21178;-69
2022/08/31 07:48:33;;;;;;;3.05;1.25;;;29.30;92.90;;;;;;1934548;73;21154;-70
2022/08/31 07:51:03;;;;;;;2.85;1.50;;;29.40;93.30;;;;;;1874511;75;21179;-70
2022/08/31 07:53:40;;;;;;;2.83;1.95;;;29.50;93.10;;;;;;1860790;76;21186;-69
2022/08/31 07:56:07;;;;;;;4.20;1.40;;;29.60;93.00;;;;;;1915067;73;21576;-69
2022/08/31 07:58:55;;;;;;;3.00;1.30;;;29.80;92.20;;;;;;1930874;73;21209;-69
2022/08/31 08:01:29;;;;;;;2.67;1.30;;;30.00;92.00;;;;;;1938170;73;21105;-70
2022/08/31 08:04:01;;;;;;;5.53;1.60;;;30.10;92.20;;;;;;1931126;73;21161;-70
2022/08/31 08:06:32;;;;;;;4.15;2.20;;;30.30;93.00;;;;;;1928940;73;21202;-69
2022/08/31 08:09:06;;;;;;;3.70;1.82;;;30.50;92.70;;;;;;1872022;75;21569;-69
2022/08/31 08:11:37;;;;;;;4.58;2.00;;;30.70;92.30;;;;;;1864638;75;21164;-69
2022/08/31 08:14:10;;;;;;;6.55;1.85;;;30.70;93.00;;;;;;1869503;75;21087;-69
2022/08/31 08:16:42;;;;;;;2.55;1.67;;;30.70;93.10;;;;;;1873974;75;21085;-68
2022/08/31 08:19:15;;;;;;;5.95;1.80;;;30.70;92.90;;;;;;1877121;76;21920;-69
2022/08/31 08:21:46;;;;;;;4.72;1.65;;;30.70;92.60;;;;;;1916074;73;21117;-69
2022/08/31 08:24:20;;;;;;;4.05;1.50;;;30.80;92.30;;;;;;1886866;74;21161;-70
2022/08/31 08:26:52;;;;;;;3.77;1.70;;;30.80;91.80;;;;;;1923830;73;21095;-69
2022/08/31 08:29:23;;;;;;;6.12;2.25;;;30.90;92.10;;;;;;1890604;73;21153;-69
2022/08/31 08:31:54;;;;;;;7.87;2.30;;;30.90;93.00;;;;;;1900706;73;21545;-68
2022/08/31 08:34:26;;;;;;;4.05;1.77;;;30.90;92.70;;;;;;1891542;74;21213;-69
2022/08/31 08:36:58;;;;;;;4.30;2.00;;;31.00;91.60;;;;;;1899900;75;21585;-69
2022/08/31 08:39:29;;;;;;;2.77;1.90;;;31.10;91.90;;;;;;1902161;74;21151;-69
2022/08/31 08:42:00;;;;;;;4.60;2.08;;;31.10;92.30;;;;;;1902122;74;21227;-68
2022/08/31 08:44:32;;;;;;;3.77;2.47;;;31.20;92.70;;;;;;1904356;74;21490;-69
2022/08/31 08:47:05;;;;;;;5.12;2.67;;;31.20;92.10;;;;;;1899566;74;21142;-69
2022/08/31 08:49:39;;;;;;;4.90;2.15;;;31.30;91.60;;;;;;1880515;76;21676;-70
2022/08/31 08:52:13;;;;;;;8.95;2.47;;;31.40;91.80;;;;;;1919007;73;21732;-70
2022/08/31 08:54:46;;;;;;;4.95;1.92;;;31.50;92.00;;;;;;1870572;75;21235;-70
2022/08/31 08:57:20;;;;;;;5.90;2.75;;;31.60;91.50;;;;;;1881414;76;21061;-70
2022/08/31 08:59:52;;;;;;;6.03;2.30;;;31.70;91.40;;;;;;1866207;75;21160;-69
2022/08/31 09:02:26;;;;;;;6.28;2.65;;;31.80;91.50;;;;;;1888336;74;21663;-69
2022/08/31 09:05:00;;;;;;;3.15;2.20;;;31.90;91.30;;;;;;1927237;72;22109;-70
2022/08/31 09:07:33;;;;;;;4.40;2.75;;;31.90;91.30;;;;;;1867782;75;21118;-70
2022/08/31 09:10:06;;;;;;;3.92;2.17;;;32.00;90.70;;;;;;1867220;75;21169;-70
2022/08/31 09:12:43;;;;;;;3.60;1.90;;;32.10;90.20;;;;;;1893393;74;21603;-70
2022/08/31 09:15:15;;;;;;;2.95;2.20;;;32.20;90.30;;;;;;1897854;74;21153;-69
2022/08/31 09:17:48;;;;;;;4.10;2.10;;;32.20;90.40;;;;;;1930701;73;21092;-68
2022/08/31 09:20:19;;;;;;;7.28;1.92;;;32.20;90.30;;;;;;1927725;73;21101;-69
2022/08/31 09:22:55;;;;;;;4.70;2.00;;;32.20;90.00;;;;;;1863554;75;21615;-68
2022/08/31 09:25:31;;;;;;;5.33;2.00;;;32.10;90.50;;;;;;1872927;75;21108;-71
2022/08/31 09:28:02;;;;;;;5.28;2.30;;;32.10;90.70;;;;;;1923047;72;21229;-70
2022/08/31 09:30:35;;;;;;;5.30;2.40;;;32.10;91.20;;;;;;1876235;75;21117;-70
2022/08/31 09:33:11;;;;;;;4.58;2.92;;;32.10;91.40;;;;;;1919947;73;21601;-70
2022/08/31 09:35:42;;;;;;;5.33;3.35;;;32.10;91.50;;;;;;1868938;75;21763;-70
2022/08/31 09:38:16;;;;;;;5.12;2.70;;;32.00;91.60;;;;;;1932064;73;21081;-69
2022/08/31 09:40:51;;;;;;;6.40;2.98;;;32.00;91.90;;;;;;1893567;75;21110;-70
2022/08/31 09:43:24;;;;;;;3.42;2.35;;;32.00;92.10;;;;;;1886540;74;22077;-70
2022/08/31 09:45:55;;;;;;;5.58;2.50;;;32.00;92.10;;;;;;1923283;73;21081;-69
2022/08/31 09:48:28;;;;;;;3.83;2.37;;;32.00;92.00;;;;;;1931068;72;21140;-70
2022/08/31 09:51:02;;;;;;;4.00;2.72;;;32.00;92.10;;;;;;1921132;73;21666;-69
2022/08/31 09:56:14;;;;;;;6.37;2.77;;;32.00;91.90;;;;;;1866430;75;21160;-70
2022/08/31 09:58:45;;;;;;;4.35;2.50;;;31.90;92.10;;;;;;1888055;74;21618;-70
2022/08/31 10:01:18;;;;;;;6.53;2.98;;;31.90;91.80;;;;;;1949032;72;21198;-70
2022/08/31 10:04:11;;;;;;;7.65;3.25;;;31.90;92.00;;;;;;1862401;75;22203;-70
2022/08/31 10:06:45;;;;;;;5.30;3.12;;;31.90;92.10;;;;;;1901090;74;21692;-69
2022/08/31 10:09:18;;;;;;;4.90;3.00;;;31.90;92.20;;;;;;1892882;74;21602;-70
2022/08/31 10:11:51;;;;;;;8.48;3.30;;;31.80;92.20;;;;;;1901855;74;21130;-70
2022/08/31 10:14:25;;;;;;;6.78;3.05;;;31.80;92.60;;;;;;1904091;74;21102;-70
2022/08/31 10:16:59;;;;;;;6.70;3.02;;;31.60;92.90;;;;;;1891662;73;21114;-69
2022/08/31 10:19:33;;;;;;;8.63;3.00;;;31.50;92.90;;;;;;1902552;73;21126;-71
2022/08/31 10:22:06;;;;;;;5.08;3.10;;;31.40;93.20;;;;;;1872029;75;21650;-70
2022/08/31 10:24:43;;;;;;;9.90;3.00;;;31.30;93.80;;;;;;1894948;73;21092;-71
2022/08/31 10:27:14;;;;;;;7.08;3.05;;;31.20;94.20;;;;;;1886027;74;21142;-70
2022/08/31 10:29:48;;;;;;;6.67;2.90;;;31.10;94.30;;;;;;1863506;75;21116;-70
2022/08/31 10:32:22;;;;;;;9.98;3.15;;;30.90;94.20;;;;;;1889118;74;21102;-69
2022/08/31 10:37:30;;;;;;;7.10;3.10;;;30.80;95.00;;;;;;1848820;76;21293;-70
2022/08/31 10:40:04;;;;;;;4.87;2.87;;;30.70;95.00;;;;;;1893273;74;21199;-70
2022/08/31 10:42:38;;;;;;;4.95;2.90;;;30.70;95.20;;;;;;1894702;74;21215;-71
2022/08/31 10:45:14;;;;;;;6.75;3.85;;;30.60;95.10;;;;;;1883225;74;21224;-69
2022/08/31 10:47:49;;;;;;;6.87;2.85;;;30.50;94.80;;;;;;1901076;74;21618;-70
2022/08/31 10:50:22;;;;;;;7.83;3.60;;;30.50;95.30;;;;;;1878603;76;21167;-71
2022/08/31 10:52:55;;;;;;;5.70;3.40;;;30.40;95.20;;;;;;1854188;76;21177;-71
2022/08/31 10:55:32;;;;;;;7.65;3.75;;;30.40;95.40;;;;;;1893824;75;21188;-71
2022/08/31 10:58:04;;;;;;;7.78;3.40;;;30.40;95.40;;;;;;1862414;76;21208;-72
2022/08/31 11:00:48;;;;;;;8.03;3.80;;;30.40;95.60;;;;;;1831991;75;21139;-70
2022/08/31 11:03:12;;;;;;;7.97;3.35;;;30.40;95.60;;;;;;1877482;76;21201;-69
2022/08/31 11:05:45;;;;;;;9.93;4.17;;;30.30;95.60;;;;;;1883254;75;21070;-71
2022/08/31 11:08:18;;;;;;;7.92;4.17;;;30.30;95.70;;;;;;1882409;76;21645;-70
2022/08/31 11:10:52;;;;;;;7.47;3.92;;;30.30;95.60;;;;;;1872255;76;21074;-70
2022/08/31 11:13:25;;;;;;;7.15;3.35;;;30.30;95.60;;;;;;1851006;76;21614;-70
2022/08/31 11:15:59;;;;;;;6.72;2.90;;;30.30;95.70;;;;;;1835831;77;21646;-70
2022/08/31 11:18:38;;;;;;;5.03;3.72;;;30.30;95.60;;;;;;1831849;76;21804;-69
2022/08/31 11:21:06;;;;;;;5.97;3.47;;;30.20;95.70;;;;;;1858935;77;21699;-69
2022/08/31 11:23:41;;;;;;;7.50;3.87;;;30.20;95.60;;;;;;1811528;79;21636;-71
2022/08/31 11:26:14;;;;;;;5.95;3.72;;;30.10;95.60;;;;;;1849240;76;21803;-70
2022/08/31 11:28:48;;;;;;;5.40;3.60;;;30.20;95.90;;;;;;1811372;77;21158;-71
2022/08/31 11:31:22;;;;;;;6.83;3.50;;;30.10;95.80;;;;;;1848752;76;21625;-71
2022/08/31 11:33:56;;;;;;;6.05;3.70;;;30.10;95.90;;;;;;1848962;76;21224;-72
2022/08/31 11:36:30;;;;;;;8.00;3.65;;;30.10;96.00;;;;;;1849929;76;21117;-70
2022/08/31 11:39:02;;;;;;;7.20;4.12;;;30.10;95.90;;;;;;1840435;77;21169;-71
2022/08/31 11:41:35;;;;;;;8.70;4.28;;;30.10;96.00;;;;;;1846293;77;21130;-69
2022/08/31 11:44:08;;;;;;;6.97;3.58;;;30.00;96.10;;;;;;1850505;76;21145;-71
2022/08/31 11:46:41;;;;;;;8.43;3.95;;;30.00;96.30;;;;;;1884222;76;21170;-69
2022/08/31 11:49:15;;;;;;;8.38;3.80;;;30.00;96.30;;;;;;1897108;74;21153;-70
2022/08/31 11:51:47;;;;;;;8.73;4.47;;;30.00;96.40;;;;;;1875775;75;22427;-70
2022/08/31 11:54:25;;;;;;;6.65;3.52;;;30.00;96.80;;;;;;1878494;74;21174;-70
2022/08/31 11:56:55;;;;;;;10.38;4.30;;;29.90;96.60;;;;;;1875422;74;21566;-70
2022/08/31 11:59:33;;;;;;;7.75;3.67;;;29.90;96.60;;;;;;1864343;76;21177;-84
2022/08/31 12:02:04;;;;;;;6.53;3.80;;;29.90;96.70;;;;;;1885121;75;21526;-81
2022/08/31 12:04:44;;;;;;;7.15;3.98;;;29.90;96.70;;;;;;1889231;74;21783;-82
2022/08/31 12:07:13;;;;;;;7.27;4.50;;;29.90;96.90;;;;;;1888963;74;21689;-80
2022/08/31 12:09:47;;;;;;;8.38;4.78;;;29.90;97.00;;;;;;1880649;74;21534;-80
2022/08/31 12:12:22;;;;;;;11.63;6.40;;;29.80;96.90;;;;;;1881026;74;21170;-81
2022/08/31 12:14:57;;;;;;;9.38;5.20;;;29.80;97.10;;;;;;1876343;74;21146;-82
2022/08/31 12:17:33;;;;;;;9.43;5.53;;;29.80;97.10;;;;;;1876050;76;21146;-81
2022/08/31 12:20:07;;;;;;;7.00;5.03;;;29.80;97.20;;;;;;1871062;75;21162;-81
2022/08/31 12:25:21;;;;;;;9.75;5.03;;;29.70;97.40;;;;;;1848715;77;21083;-80
2022/08/31 12:27:54;;;;;;;9.63;4.67;;;29.70;97.50;;;;;;1885588;74;21087;-81
2022/08/31 12:30:27;;;;;;;10.90;5.53;;;29.70;97.50;;;;;;1885697;75;21142;-83
2022/08/31 12:32:58;;;;;;;10.40;5.15;;;29.80;97.60;;;;;;1884838;75;22237;-81
2022/08/31 12:35:32;;;;;;;9.80;5.33;;;29.70;97.40;;;;;;1886603;75;21127;-81
2022/08/31 12:38:06;;;;;;;7.92;5.25;;;29.80;97.70;;;;;;1886244;74;21653;-81
2022/08/31 12:40:39;;;;;;;9.80;5.28;;;29.80;97.70;;;;;;1861358;76;21188;-81
2022/08/31 12:43:14;;;;;;;11.10;5.40;;;29.80;97.80;;;;;;1887185;75;21634;-82
2022/08/31 12:45:47;;;;;;;11.55;5.85;;;29.70;97.80;;;;;;1875119;75;21175;-82
2022/08/31 12:48:20;;;;;;;11.30;5.55;;;29.70;98.00;;;;;;1887267;74;21068;-82
2022/08/31 12:50:55;;;;;;;16.00;7.97;;;29.60;98.00;;;;;;1874033;75;21218;-79
2022/08/31 12:53:28;;;;;;;12.55;6.83;;;29.60;98.00;;;;;;1872509;75;21172;-80
2022/08/31 12:56:01;;;;;;;11.05;6.28;;;29.60;98.10;;;;;;1867954;75;21267;-81
2022/08/31 12:58:35;;;;;;;10.03;5.47;;;29.60;98.20;;;;;;1866261;75;21452;-81
2022/08/31 13:01:08;;;;;;;6.95;5.35;;;29.60;98.50;;;;;;1871506;75;21268;-81
2022/08/31 13:03:45;;;;;;;9.03;5.90;;;29.60;98.60;;;;;;1859479;76;21192;-81
2022/08/31 13:06:16;;;;;;;8.70;5.55;;;29.60;98.70;;;;;;1888183;75;21158;-81
2022/08/31 13:08:53;;;;;;;7.65;5.25;;;29.50;98.60;;;;;;1846030;76;21203;-81
2022/08/31 13:11:26;;;;;;;7.67;5.28;;;29.50;98.30;;;;;;1857984;76;21566;-81
2022/08/31 13:14:00;;;;;;;10.00;5.72;;;29.60;98.60;;;;;;1885457;75;21160;-80
2022/08/31 13:16:32;;;;;;;9.33;5.45;;;29.50;98.60;;;;;;1890496;74;21138;-81
2022/08/31 13:19:05;;;;;;;7.20;4.90;;;29.50;98.80;;;;;;1881127;75;21288;-82
2022/08/31 13:21:37;;;;;;;6.92;4.85;;;29.50;98.80;;;;;;1866949;75;21252;-80
2022/08/31 13:24:10;;;;;;;10.32;5.20;;;29.40;98.80;;;;;;1884058;75;21189;-80
2022/08/31 13:26:42;;;;;;;9.68;5.05;;;29.40;98.80;;;;;;1908280;74;21154;-81
2022/08/31 13:29:18;;;;;;;8.35;4.90;;;29.40;98.90;;;;;;1887787;75;21207;-82
2022/08/31 13:31:51;;;;;;;7.72;4.75;;;29.40;98.90;;;;;;1877719;76;21093;-82